• Join FlightAware (Why Join?)
  • Login
  • US Flag 
03:57AM EST


 

Airport Tracker/Info


-or-


 

Live Flight TrackerFlight Track Log ✈ N433JM ✈ 25-Jan-2014 ✈ KOCF - 27K

Flight Track Log - Related Links

Times and Time Zones

All times are in EST time to prevent confusion due to time zone crossing. See the N433JM flight status page for this flight to view local times or setup timezone preferences in your user account.

Time Position Orientation Groundspeed Altitude Reporting Facility
EST Latitude Longitude Course Direction KTS MPH feet Rate Location/Type
08:55PM 29.2458 -82.2142 15° North 152 175 4,000  Level Jacksonville Center
08:56PM 29.2939 -82.2233 351° North 152 175 6,500 1,920 Climbing Jacksonville Center
08:57PM 29.3317 -82.2303 351° North 142 163 8,300 1,800 Climbing Jacksonville Center
08:58PM 29.3733 -82.2397 349° North 142 163 10,200 1,800 Climbing Jacksonville Center
08:59PM 29.4172 -82.2464 352° North 147 169 12,000 1,800 Climbing Jacksonville Center
09:00PM 29.4633 -82.2581 348° North 153 176 13,800 1,800 Climbing Jacksonville Center
09:01PM 29.5092 -82.2672 350° North 163 188 15,600 1,740 Climbing Jacksonville Center
09:02PM 29.5572 -82.2767 350° North 163 188 17,300 1,560 Climbing Jacksonville Center
09:03PM 29.6053 -82.2883 348° North 163 188 18,800 1,620 Climbing Jacksonville Center
09:04PM 29.6556 -82.2997 349° North 168 193 20,600 1,380 Climbing Jacksonville Center
09:05PM 29.7056 -82.3092 351° North 174 200 21,600 660 Climbing Jacksonville Center
09:06PM 29.7475 -82.3183 349° North 180 207 22,000 180 Climbing Jacksonville Center
09:07PM 29.8186 -82.3347 349° North 202 232 22,000  Level Jacksonville Center
09:08PM 29.8917 -82.3536 347° North 227 261 22,000 240 Level Jacksonville Center
09:09PM 29.9564 -82.3675 349° North 239 275 22,500 480 Climbing Jacksonville Center
09:10PM 30.0192 -82.3817 349° North 239 275 23,000 420 Climbing Jacksonville Center
09:11PM 30.0756 -82.3956 348° North 239 275 23,400 420 Climbing Jacksonville Center
09:12PM 30.1342 -82.4097 348° North 229 264 23,900 480 Climbing Jacksonville Center
09:13PM 30.1947 -82.4239 349° North 218 251 24,400 480 Climbing Jacksonville Center
09:14PM 30.2531 -82.4381 348° North 218 251 24,900 300 Climbing Jacksonville Center
09:15PM 30.3158 -82.4497 351° North 218 251 25,000  Climbing Jacksonville Center
09:16PM 30.3764 -82.4639 349° North 218 251 25,000  Level Jacksonville Center
09:17PM 30.4392 -82.4806 347° North 218 251 25,000  Level Jacksonville Center
09:18PM 30.5061 -82.4947 350° North 223 257 25,000  Level Jacksonville Center
09:19PM 30.5686 -82.5114 347° North 223 257 25,000  Level Jacksonville Center
09:20PM 30.6333 -82.5256 349° North 223 257 25,000  Level Jacksonville Center
09:21PM 30.6983 -82.5375 351° North 228 262 25,000  Level Jacksonville Center
09:22PM 30.7589 -82.5517 349° North 228 262 25,000  Level Jacksonville Center
09:23PM 30.8214 -82.5683 347° North 228 262 25,000  Level Jacksonville Center
09:24PM 30.8842 -82.5850 347° North 228 262 25,000  Level Jacksonville Center
09:25PM 30.9469 -82.5969 351° North 223 257 25,000  Level Jacksonville Center
09:26PM 31.0094 -82.6114 349° North 223 257 25,000  Level Jacksonville Center
09:27PM 31.0722 -82.6258 349° North 223 257 25,000  Level Jacksonville Center
09:28PM 31.1433 -82.6403 350° North 218 251 25,000  Level Jacksonville Center
09:29PM 31.2039 -82.6569 347° North 223 257 25,000  Level Jacksonville Center
09:30PM 31.2686 -82.6714 349° North 225 259 25,000  Level Jacksonville Center
09:31PM 31.3292 -82.6858 348° North 225 259 25,000  Level Jacksonville Center
09:32PM 31.3917 -82.7003 349° North 225 259 25,000  Level Jacksonville Center
09:34PM 31.5164 -82.7308 348° North 222 255 25,000  Level Atlanta Center
09:35PM 31.5792 -82.7469 348° North 222 255 25,000  Level Atlanta Center
09:36PM 31.6378 -82.7583 351° North 222 255 25,000  Level Atlanta Center
09:37PM 31.6983 -82.7744 347° North 222 255 25,000  Level Atlanta Center
09:38PM 31.7611 -82.7858 351° North 222 255 25,000  Level Atlanta Center
09:39PM 31.8217 -82.8022 347° North 222 255 25,000  Level Atlanta Center
09:40PM 31.8783 -82.8161 348° North 217 250 25,000  Level Atlanta Center
09:41PM 31.9411 -82.8322 348° North 222 255 25,000  Level Atlanta Center
09:42PM 32.0039 -82.8461 349° North 222 255 25,000  Level Atlanta Center
09:43PM 32.0644 -82.8600 349° North 222 255 25,000  Level Atlanta Center
09:44PM 32.1253 -82.8764 347° North 222 255 25,000  Level Atlanta Center
09:45PM 32.1858 -82.8878 351° North 222 255 25,000  Level Atlanta Center
09:46PM 32.2486 -82.9042 348° North 222 255 25,000  Level Atlanta Center
09:47PM 32.3092 -82.9183 349° North 222 255 25,000  Level Atlanta Center
09:48PM 32.3700 -82.9322 349° North 222 255 25,000  Level Atlanta Center
09:49PM 32.4347 -82.9486 348° North 222 255 25,000  Level Atlanta Center
09:50PM 32.4975 -82.9650 348° North 222 255 25,000  Level Atlanta Center
09:51PM 32.5581 -82.9767 351° North 222 255 25,000  Level Atlanta Center
09:52PM 32.6147 -82.9908 348° North 222 255 25,000  Level Atlanta Center
09:53PM 32.6753 -83.0047 349° North 222 255 25,000  Level Atlanta Center
09:54PM 32.7339 -83.0214 347° North 222 255 25,000  Level Atlanta Center
09:55PM 32.7925 -83.0356 349° North 222 255 25,000  Level Atlanta Center
09:56PM 32.8508 -83.0472 350° North 222 255 25,000  Level Atlanta Center
09:57PM 32.9094 -83.0614 349° North 222 255 25,000  Level Atlanta Center
09:58PM 32.9703 -83.0756 349° North 222 255 25,000 -120 Level Atlanta Center
09:59PM 33.0286 -83.0897 348° North 217 250 24,800 -300 Descending Atlanta Center
10:00PM 33.0894 -83.1067 347° North 223 257 24,500 -360 Descending Atlanta Center
10:01PM 33.1522 -83.1208 349° North 223 257 24,100 -300 Descending Atlanta Center
10:02PM 33.2169 -83.1350 350° North 229 264 24,000 -60 Descending Atlanta Center
10:03PM 33.2733 -83.1492 348° North 221 254 24,000  Level Atlanta Center
10:04PM 33.3319 -83.1661 346° North 221 254 24,000  Level Atlanta Center
10:05PM 33.3864 -83.1781 350° North 219 252 24,000  Level Atlanta Center
10:06PM 33.4447 -83.1925 348° North 219 252 24,000  Level Atlanta Center
10:07PM 33.5033 -83.2092 347° North 219 252 24,000  Level Atlanta Center
10:08PM 33.5619 -83.2211 350° North 219 252 24,000  Level Atlanta Center
10:09PM 33.6206 -83.2356 348° North 219 252 24,000  Level Atlanta Center
10:10PM 33.6769 -83.2500 348° North 219 252 24,000  Level Atlanta Center
10:11PM 33.7356 -83.2644 348° North 219 252 24,000  Level Atlanta Center
10:12PM 33.8003 -83.2789 349° North 219 252 24,000  Level Atlanta Center
10:13PM 33.8608 -83.2933 349° North 219 252 24,000  Level Atlanta Center
10:14PM 33.9153 -83.3078 348° North 214 246 24,000  Level Atlanta Center
10:15PM 33.9758 -83.3197 351° North 214 246 24,000  Level Atlanta Center
10:16PM 34.0303 -83.3344 347° North 209 241 24,000  Level Atlanta Center
10:17PM 34.0886 -83.3489 348° North 209 241 24,000  Level Atlanta Center
10:18PM 34.1450 -83.3611 350° North 204 235 24,000  Level Atlanta Center
10:19PM 34.2036 -83.3783 346° North 202 232 24,000  Level Atlanta Center
10:20PM 34.2600 -83.3903 350° North 202 232 24,000  Level Atlanta Center
10:21PM 34.3164 -83.4050 348° North 202 232 24,000  Level Atlanta Center
10:22PM 34.3728 -83.4197 348° North 202 232 24,000  Level Atlanta Center
10:23PM 34.4231 -83.4319 349° North 202 232 24,000  Level Atlanta Center
10:24PM 34.4794 -83.4442 350° North 202 232 24,000  Level Atlanta Center
10:25PM 34.5381 -83.4614 346° North 202 232 24,000  Level Atlanta Center
10:26PM 34.5922 -83.4736 349° North 202 232 24,000  Level Atlanta Center
10:27PM 34.6486 -83.4883 348° North 202 232 24,000  Level Atlanta Center
10:28PM 34.7114 -83.5031 349° North 202 232 24,000  Level Atlanta Center
10:29PM 34.7636 -83.5206 345° North 202 232 24,000  Level Atlanta Center
10:30PM 34.8200 -83.5353 348° North 202 232 24,000  Level Atlanta Center
10:31PM 34.8806 -83.5475 351° North 207 238 24,000  Level Atlanta Center
10:32PM 34.9369 -83.5625 348° North 207 238 24,000  Level Atlanta Center
10:33PM 34.9892 -83.5775 347° North 207 238 24,000  Level Atlanta Center
10:34PM 35.0436 -83.5922 348° North 207 238 24,000  Level Atlanta Center
10:35PM 35.0958 -83.6047 349° North 196 226 24,000  Level Atlanta Center
10:36PM 35.1481 -83.6197 347° North 196 226 24,000  Level Atlanta Center
10:37PM 35.2022 -83.6319 350° North 196 226 24,000  Level Atlanta Center
10:38PM 35.2586 -83.6469 348° North 196 226 24,000  Level Atlanta Center
10:39PM 35.3131 -83.6594 349° North 201 231 24,000  Level Atlanta Center
10:40PM 35.3631 -83.6719 348° North 201 231 24,000  Level Atlanta Center
10:41PM 35.4153 -83.6872 347° North 196 226 24,000  Level Atlanta Center
10:42PM 35.4653 -83.6997 348° North 191 220 24,000  Level Atlanta Center
10:43PM 35.5175 -83.7122 349° North 191 220 24,000  Level Atlanta Center
10:44PM 35.5697 -83.7247 349° North 191 220 24,000  Level Atlanta Center
10:45PM 35.6219 -83.7397 347° North 186 214 24,000  Level Atlanta Center
10:46PM 35.6719 -83.7525 348° North 186 214 24,000  Level Atlanta Center
10:47PM 35.7242 -83.7650 349° North 186 214 24,000  Level Atlanta Center
10:48PM 35.7744 -83.7778 348° North 181 208 24,000  Level Atlanta Center
10:49PM 35.8244 -83.7903 349° North 181 208 24,000  Level Atlanta Center
10:50PM 35.8767 -83.8056 347° North 181 208 24,000  Level Atlanta Center
10:51PM 35.9267 -83.8156 351° North 181 208 24,000  Level Atlanta Center
10:52PM 35.9767 -83.8333 344° North 181 208 24,000  Level Atlanta Center
10:53PM 36.0269 -83.8461 348° North 181 208 24,000  Level Atlanta Center
10:54PM 36.0789 -83.8589 349° North 181 208 24,000  Level Atlanta Center
10:55PM 36.1292 -83.8675 352° North 187 215 24,000  Level Indianapolis Center
10:56PM 36.1794 -83.8817 347° North 185 213 24,000  Level Indianapolis Center
10:57PM 36.2300 -83.8944 348° North 185 213 24,000  Level Indianapolis Center
10:58PM 36.2814 -83.9081 348° North 187 215 24,000  Level Indianapolis Center
10:59PM 36.3322 -83.9217 348° North 186 214 24,000  Level Indianapolis Center
11:00PM 36.3808 -83.9342 348° North 180 207 24,000  Level Indianapolis Center
11:01PM 36.4411 -83.9503 348° North 183 211 24,000  Level Indianapolis Center
11:02PM 36.4917 -83.9631 349° North 186 214 24,000  Level Indianapolis Center
11:03PM 36.5392 -83.9761 348° North 183 211 24,000  Level Indianapolis Center
11:04PM 36.5897 -83.9889 349° North 184 212 24,000 -240 Level Indianapolis Center
11:05PM 36.6414 -84.0025 348° North 188 216 23,600 -360 Descending Indianapolis Center
11:06PM 36.6969 -84.0172 348° North 199 229 23,300 -300 Descending Indianapolis Center
11:07PM 36.7519 -84.0308 349° North 200 230 23,000 -300 Descending Indianapolis Center
11:08PM 36.8078 -84.0467 347° North 203 234 22,700 -300 Descending Indianapolis Center
11:09PM 36.8628 -84.0611 348° North 202 232 22,400 -300 Descending Indianapolis Center
11:10PM 36.9181 -84.0758 348° North 202 232 22,200 -360 Descending Indianapolis Center
11:11PM 36.9728 -84.0911 347° North 201 231 21,700 -600 Descending Indianapolis Center
11:12PM 37.0306 -84.1058 349° North 207 238 21,100 -660 Descending Indianapolis Center
11:13PM 37.0875 -84.1217 347° North 208 239 20,400 -660 Descending Indianapolis Center
11:14PM 37.1450 -84.1367 348° North 210 242 19,800 -720 Descending Indianapolis Center
11:15PM 37.2017 -84.1522 348° North 209 241 19,000 -900 Descending Indianapolis Center
11:16PM 37.2619 -84.1672 349° North 216 249 18,100 -900 Descending Indianapolis Center
11:17PM 37.3217 -84.1853 346° North 219 252 17,200 -900 Descending Indianapolis Center
11:18PM 37.3825 -84.1994 350° North 220 253 16,400 -720 Descending Indianapolis Center
11:19PM 37.4367 -84.2161 346° North 218 251 15,800 -900 Descending Indianapolis Center
11:20PM 37.5003 -84.2325 348° North 218 251 14,700 -960 Descending Indianapolis Center
11:21PM 37.5622 -84.2489 348° North 211 243 13,900 -900 Descending Indianapolis Center
11:22PM 37.6131 -84.2628 348° North 208 239 12,900 -960 Descending Indianapolis Center
11:23PM 37.6692 -84.2794 347° North 207 238 12,000 -900 Descending Indianapolis Center
11:24PM 37.7264 -84.2936 349° North 208 239 11,200 -900 Descending Indianapolis Center
11:25PM 37.7817 -84.3100 347° North 204 235 10,300 -900 Descending Indianapolis Center
11:26PM 37.8383 -84.3242 349° North 206 237 9,500 -900 Descending Indianapolis Center
11:27PM 37.8947 -84.3389 348° North 206 237 8,600 -960 Descending Indianapolis Center
11:28PM 37.9525 -84.3553 347° North 210 242 7,600 -960 Descending Indianapolis Center
11:29PM 38.0183 -84.3756 346° North 217 250 6,700 -840 Descending Indianapolis Center
11:30PM 38.0786 -84.3922 348° North 217 250 6,000 -720 Descending Indianapolis Center
11:32PM 38.1377 -84.4075 351° North  Level FlightAware Approximate
11:39PM 38.2333 -84.4333 345° North  Level FlightAware Approximate
11:40PM 38.2344 -84.4347 345° North  Level Estimated
11:41PM 38.2333 -84.4333 345° North  Level FlightAware Approximate